Time;durP1;ratioP1;P1;durP2;ratioP2;P2;SDS_P1;SDS_P2;PMS_P1;PMS_P2;Temp;Humidity;BMP_temperature;BMP_pressure;BME280_temperature;BME280_humidity;BME280_pressure;Samples;Min_cycle;Max_cycle;Signal;HPM_P1;HPM_P2
2022/11/12 00:01:46;;;;;;;17.17;14.20;;;7.70;99.90;;;;;;5016110;28;20473;-56
2022/11/12 00:04:13;;;;;;;19.47;14.83;;;7.80;99.90;;;;;;5015724;28;21051;-56
2022/11/12 00:06:41;;;;;;;16.63;13.60;;;7.80;99.90;;;;;;5015534;28;20949;-56
2022/11/12 00:09:08;;;;;;;20.83;17.03;;;7.90;99.90;;;;;;5015991;28;20805;-57
2022/11/12 00:11:35;;;;;;;18.90;14.00;;;7.90;99.90;;;;;;5015980;28;20476;-57
2022/11/12 00:14:02;;;;;;;16.60;14.37;;;7.80;99.90;;;;;;5015561;28;20933;-56
2022/11/12 00:16:30;;;;;;;16.97;13.57;;;7.70;99.90;;;;;;5015336;28;20554;-57
2022/11/12 00:18:57;;;;;;;14.60;13.20;;;7.70;99.90;;;;;;5015842;28;20451;-57
2022/11/12 00:21:24;;;;;;;19.53;14.30;;;7.70;99.90;;;;;;5015091;28;20541;-57
2022/11/12 00:23:52;;;;;;;20.20;14.90;;;7.80;99.90;;;;;;5015622;28;20573;-57
2022/11/12 00:26:19;;;;;;;16.47;12.63;;;7.80;99.90;;;;;;5015783;28;20562;-57
2022/11/12 00:28:46;;;;;;;14.37;12.80;;;7.80;99.90;;;;;;5016123;28;20566;-57
2022/11/12 00:31:13;;;;;;;14.37;12.80;;;7.70;99.90;;;;;;5015244;28;20967;-57
2022/11/12 00:33:41;;;;;;;14.20;12.37;;;7.70;99.90;;;;;;5015432;28;20443;-57
2022/11/12 00:36:09;;;;;;;15.47;12.50;;;7.70;99.90;;;;;;5015419;28;20544;-57
2022/11/12 00:38:36;;;;;;;16.23;13.50;;;7.70;99.90;;;;;;5015452;28;20474;-57
2022/11/12 00:41:05;;;;;;;16.10;11.73;;;7.50;99.90;;;;;;5015359;28;20451;-57
2022/11/12 00:43:32;;;;;;;19.77;13.93;;;7.60;99.90;;;;;;5015255;28;21010;-57
2022/11/12 00:45:59;;;;;;;15.60;13.00;;;7.60;99.90;;;;;;5015145;28;21013;-56
2022/11/12 00:48:26;;;;;;;15.70;13.57;;;7.60;99.90;;;;;;5015182;28;20450;-57
2022/11/12 00:51:00;;;;;;;12.40;11.20;;;7.60;99.90;;;;;;5014905;28;20458;-57
2022/11/12 00:53:27;;;;;;;13.63;12.33;;;7.70;99.90;;;;;;5014949;28;20438;-57
2022/11/12 00:56:00;;;;;;;16.30;12.87;;;7.70;99.90;;;;;;5015216;28;20471;-57
2022/11/12 00:58:30;;;;;;;15.23;12.60;;;7.50;99.90;;;;;;5014806;28;20952;-56
2022/11/12 01:00:58;;;;;;;15.03;11.30;;;7.50;99.90;;;;;;5015131;28;20447;-57
2022/11/12 01:03:28;;;;;;;16.57;12.00;;;7.60;99.90;;;;;;5014637;28;20483;-57
2022/11/12 01:05:55;;;;;;;13.27;11.60;;;7.60;99.90;;;;;;5014524;28;20482;-56
2022/11/12 01:08:22;;;;;;;18.97;12.73;;;7.50;99.90;;;;;;5014857;28;20454;-56
2022/11/12 01:10:49;;;;;;;15.20;12.03;;;7.40;99.90;;;;;;5014847;28;20458;-57
2022/11/12 01:13:16;;;;;;;14.00;11.37;;;7.40;99.90;;;;;;5014530;28;20529;-57
2022/11/12 01:15:45;;;;;;;14.47;12.10;;;7.30;99.90;;;;;;5014557;28;20467;-56
2022/11/12 01:18:12;;;;;;;15.00;11.30;;;7.40;99.90;;;;;;5015458;28;20451;-56
2022/11/12 01:20:39;;;;;;;12.40;11.10;;;7.40;99.90;;;;;;5014687;28;20455;-56
2022/11/12 01:23:06;;;;;;;12.93;10.70;;;7.30;99.90;;;;;;5014295;28;21007;-57
2022/11/12 01:25:33;;;;;;;13.30;12.00;;;7.30;99.90;;;;;;5014594;28;20569;-57
2022/11/12 01:28:00;;;;;;;14.07;12.57;;;7.30;99.90;;;;;;5014274;28;20542;-56
2022/11/12 01:30:28;;;;;;;14.00;11.27;;;7.30;99.90;;;;;;5014554;28;20451;-57
2022/11/12 01:32:56;;;;;;;14.10;11.83;;;7.20;99.90;;;;;;5013543;28;20530;-57
2022/11/12 01:35:24;;;;;;;11.90;10.57;;;7.20;99.90;;;;;;5014412;28;20483;-56
2022/11/12 01:37:51;;;;;;;13.40;11.70;;;7.30;99.90;;;;;;5014425;28;20455;-57
2022/11/12 01:40:19;;;;;;;15.13;11.70;;;7.30;99.90;;;;;;5014612;28;20447;-56
2022/11/12 01:42:52;;;;;;;14.40;10.40;;;7.30;99.90;;;;;;5014770;28;20533;-56
2022/11/12 01:45:19;;;;;;;14.57;11.20;;;7.30;99.90;;;;;;5014275;28;20467;-57
2022/11/12 01:47:49;;;;;;;13.10;11.10;;;7.30;99.90;;;;;;5014293;28;20538;-56
2022/11/12 01:50:23;;;;;;;13.40;10.93;;;7.20;99.90;;;;;;5014276;28;20451;-56
2022/11/12 01:52:59;;;;;;;12.43;11.17;;;7.20;99.90;;;;;;5014278;28;20778;-56
2022/11/12 01:55:30;;;;;;;12.67;10.80;;;7.10;99.90;;;;;;5014146;28;20459;-56
2022/11/12 01:58:05;;;;;;;14.33;11.30;;;7.10;99.90;;;;;;5014003;28;20431;-56
2022/11/12 02:00:32;;;;;;;13.63;12.10;;;7.00;99.90;;;;;;5013878;28;20434;-56
2022/11/12 02:03:02;;;;;;;12.73;10.97;;;7.00;99.90;;;;;;5014078;28;20485;-57
2022/11/12 02:05:33;;;;;;;12.30;10.73;;;6.90;99.90;;;;;;5013692;28;20487;-56
2022/11/12 02:08:00;;;;;;;12.63;9.93;;;6.90;99.90;;;;;;5014032;28;20436;-57
2022/11/12 02:10:28;;;;;;;14.70;11.43;;;7.00;99.90;;;;;;5014028;28;20530;-56
2022/11/12 02:15:41;;;;;;;12.40;11.10;;;7.00;99.90;;;;;;5013691;28;20446;-57
2022/11/12 02:18:09;;;;;;;12.20;10.90;;;7.00;99.90;;;;;;5013942;28;20545;-56
2022/11/12 02:20:38;;;;;;;14.07;10.90;;;7.00;99.90;;;;;;5014205;28;20443;-56
2022/11/12 02:23:08;;;;;;;11.77;10.50;;;7.00;99.90;;;;;;5013843;28;20483;-57
2022/11/12 02:25:36;;;;;;;13.77;10.23;;;7.00;99.90;;;;;;5013870;28;20467;-57
2022/11/12 02:28:06;;;;;;;13.40;10.43;;;7.00;99.90;;;;;;5013897;28;20447;-57
2022/11/12 02:30:36;;;;;;;11.23;9.90;;;7.20;99.90;;;;;;5013840;28;20842;-57
2022/11/12 02:33:03;;;;;;;12.17;10.33;;;7.10;99.90;;;;;;5013840;28;20949;-56
2022/11/12 02:35:31;;;;;;;13.37;11.00;;;7.00;99.90;;;;;;5014074;28;20479;-56
2022/11/12 02:37:58;;;;;;;13.23;11.90;;;7.00;99.90;;;;;;5013797;28;20892;-56
2022/11/12 02:40:27;;;;;;;14.30;10.40;;;7.10;99.90;;;;;;5013786;28;20453;-56
2022/11/12 02:42:54;;;;;;;17.07;10.93;;;7.10;99.90;;;;;;5013654;28;20529;-57
2022/11/12 02:45:22;;;;;;;12.00;10.80;;;7.10;99.90;;;;;;5016403;28;20503;-56
2022/11/12 02:47:49;;;;;;;15.03;10.00;;;7.10;99.90;;;;;;5017122;28;20538;-56
2022/11/12 02:50:17;;;;;;;11.10;9.93;;;7.10;99.90;;;;;;5017644;28;20454;-56
2022/11/12 02:52:44;;;;;;;12.73;11.43;;;7.10;99.90;;;;;;5017416;28;20452;-56
2022/11/12 02:55:12;;;;;;;10.90;9.90;;;7.10;99.90;;;;;;5017010;28;20471;-56
2022/11/12 02:57:41;;;;;;;11.40;10.27;;;7.10;99.90;;;;;;5017329;28;20447;-56
2022/11/12 03:00:11;;;;;;;13.77;11.60;;;7.10;99.90;;;;;;5017305;28;20817;-57
2022/11/12 03:02:41;;;;;;;11.30;10.10;;;7.00;99.90;;;;;;5017252;28;20446;-56
2022/11/12 03:05:09;;;;;;;12.00;10.80;;;7.00;99.90;;;;;;5017016;28;20493;-56
2022/11/12 03:07:37;;;;;;;13.03;9.57;;;7.10;99.90;;;;;;5016906;28;20450;-56
2022/11/12 03:10:05;;;;;;;13.53;10.07;;;6.90;99.90;;;;;;5016812;28;20455;-56
2022/11/12 03:12:33;;;;;;;10.03;9.07;;;6.80;99.90;;;;;;5017071;28;20446;-56
2022/11/12 03:15:01;;;;;;;10.80;9.77;;;6.70;99.90;;;;;;5017267;28;20459;-57
2022/11/12 03:17:28;;;;;;;13.70;9.60;;;6.60;99.90;;;;;;5016583;28;20809;-56
2022/11/12 03:19:56;;;;;;;11.83;10.10;;;6.70;99.90;;;;;;5016662;28;20451;-56
2022/11/12 03:22:23;;;;;;;12.30;9.87;;;6.60;99.90;;;;;;5016893;28;20541;-56
2022/11/12 03:24:50;;;;;;;13.00;11.03;;;6.70;99.90;;;;;;5016732;28;20495;-56
2022/11/12 03:27:17;;;;;;;10.33;9.30;;;6.50;99.90;;;;;;5016870;28;20443;-56
2022/11/12 03:29:44;;;;;;;10.60;9.50;;;6.50;99.90;;;;;;5016755;28;20447;-56
2022/11/12 03:32:12;;;;;;;13.83;11.30;;;6.60;99.90;;;;;;5016640;28;20558;-56
2022/11/12 03:34:39;;;;;;;10.70;9.60;;;6.60;99.90;;;;;;5017107;28;20489;-56
2022/11/12 03:37:08;;;;;;;11.73;10.53;;;6.50;99.90;;;;;;5017450;28;20457;-56
2022/11/12 03:39:35;;;;;;;10.97;9.83;;;6.60;99.90;;;;;;5016621;28;20855;-56
2022/11/12 03:42:03;;;;;;;12.03;10.30;;;6.60;99.90;;;;;;5017092;28;20538;-56
2022/11/12 03:44:30;;;;;;;13.53;8.80;;;6.70;99.90;;;;;;5016793;28;20482;-56
2022/11/12 03:46:57;;;;;;;11.90;9.67;;;6.70;99.90;;;;;;5017491;28;20474;-56
2022/11/12 03:49:25;;;;;;;14.17;11.00;;;6.60;99.90;;;;;;5016588;28;20446;-56
2022/11/12 03:51:52;;;;;;;10.40;9.43;;;6.40;99.90;;;;;;5016201;28;20973;-56
2022/11/12 03:54:20;;;;;;;10.10;9.13;;;6.40;99.90;;;;;;5016259;28;20447;-56
2022/11/12 03:56:47;;;;;;;10.57;9.40;;;6.40;99.90;;;;;;5015591;28;20447;-56
2022/11/12 03:59:14;;;;;;;10.73;9.63;;;6.40;99.90;;;;;;5016237;28;20478;-56
2022/11/12 04:01:41;;;;;;;11.57;9.63;;;6.40;99.90;;;;;;5016197;28;20451;-56
2022/11/12 04:04:09;;;;;;;10.10;9.13;;;6.40;99.90;;;;;;5015752;28;20837;-56
2022/11/12 04:09:26;;;;;;;12.77;11.07;;;6.50;99.90;;;;;;4998649;28;20431;-56
2022/11/12 04:11:53;;;;;;;10.40;9.30;;;6.30;99.90;;;;;;5015990;28;20451;-56
2022/11/12 04:14:19;;;;;;;10.20;9.10;;;6.30;99.90;;;;;;5015846;28;20443;-56
2022/11/12 04:22:17;;;;;;;11.50;9.30;;;6.50;99.90;;;;;;5015625;28;20406;-56
2022/11/12 04:27:30;;;;;;;9.17;8.27;;;6.40;99.90;;;;;;5015464;28;20770;-56
2022/11/12 04:32:48;;;;;;;11.23;8.87;;;6.30;99.90;;;;;;5015640;28;20769;-57
2022/11/12 04:35:15;;;;;;;10.00;9.10;;;6.50;99.90;;;;;;5015482;28;20557;-57
2022/11/12 04:37:47;;;;;;;9.10;8.30;;;6.30;99.90;;;;;;5015588;28;20469;-56
2022/11/12 04:45:47;;;;;;;8.90;8.10;;;6.30;99.90;;;;;;5015243;28;20439;-56
2022/11/12 04:48:14;;;;;;;9.57;8.60;;;6.40;99.90;;;;;;5014973;28;20497;-56
2022/11/12 04:50:43;;;;;;;8.23;7.53;;;6.40;99.90;;;;;;5014942;28;20448;-56
2022/11/12 04:53:11;;;;;;;9.00;7.67;;;6.30;99.90;;;;;;5014829;28;20479;-56
2022/11/12 04:55:38;;;;;;;8.27;7.43;;;6.40;99.90;;;;;;5015051;28;20821;-56
2022/11/12 04:58:05;;;;;;;7.70;7.00;;;6.40;99.90;;;;;;5015127;28;20453;-56
2022/11/12 05:00:33;;;;;;;8.63;7.80;;;6.40;99.90;;;;;;5015277;28;20792;-56
2022/11/12 05:03:00;;;;;;;7.70;7.00;;;6.50;99.90;;;;;;5014762;28;20938;-56
2022/11/12 05:05:27;;;;;;;10.23;7.40;;;6.50;99.90;;;;;;5014473;28;20495;-56
2022/11/12 05:07:54;;;;;;;8.17;7.00;;;6.60;99.90;;;;;;5013945;28;20447;-56
2022/11/12 05:10:23;;;;;;;7.83;7.07;;;6.60;99.90;;;;;;5014758;28;20514;-56
2022/11/12 05:12:50;;;;;;;7.27;6.67;;;6.60;99.90;;;;;;5014555;28;20482;-57
2022/11/12 05:15:18;;;;;;;8.70;7.97;;;6.70;99.90;;;;;;5014449;28;20475;-56
2022/11/12 05:17:45;;;;;;;8.50;7.60;;;6.70;99.90;;;;;;5014478;28;20950;-56
2022/11/12 05:20:14;;;;;;;7.67;6.97;;;6.70;99.90;;;;;;5014289;28;20461;-56
2022/11/12 05:22:41;;;;;;;8.67;7.97;;;6.70;99.90;;;;;;5014696;28;20486;-56
2022/11/12 05:25:09;;;;;;;6.97;6.37;;;6.60;99.90;;;;;;5014197;28;20486;-56
2022/11/12 05:27:37;;;;;;;7.77;7.07;;;6.50;99.90;;;;;;5014410;28;20450;-56
2022/11/12 05:30:06;;;;;;;7.60;6.77;;;6.40;99.90;;;;;;5014491;28;20483;-56
2022/11/12 05:32:33;;;;;;;7.03;6.33;;;6.40;99.90;;;;;;5014507;28;20517;-56
2022/11/12 05:35:00;;;;;;;7.20;6.60;;;6.60;99.90;;;;;;5014465;28;20475;-56
2022/11/12 05:37:27;;;;;;;7.70;7.00;;;6.60;99.90;;;;;;5014114;28;20537;-56
2022/11/12 05:39:55;;;;;;;8.80;6.67;;;6.30;99.90;;;;;;5014342;28;20461;-56
2022/11/12 05:42:22;;;;;;;8.07;7.27;;;6.10;99.90;;;;;;5014426;28;20457;-56
2022/11/12 05:44:50;;;;;;;8.03;6.90;;;6.10;99.90;;;;;;5014229;28;20490;-57
2022/11/12 05:47:18;;;;;;;7.60;6.67;;;6.00;99.90;;;;;;5014358;28;20458;-56
2022/11/12 05:49:45;;;;;;;7.83;7.03;;;6.10;99.90;;;;;;5013952;28;20486;-56
2022/11/12 05:52:12;;;;;;;7.20;6.60;;;6.10;99.90;;;;;;5014628;28;20447;-56
2022/11/12 05:54:39;;;;;;;7.73;7.00;;;6.10;99.90;;;;;;5014073;28;20490;-56
2022/11/12 05:57:06;;;;;;;7.23;6.60;;;6.10;99.90;;;;;;5014203;28;20447;-56
2022/11/12 05:59:33;;;;;;;7.40;6.57;;;6.10;99.90;;;;;;5013912;28;20537;-57
2022/11/12 06:02:02;;;;;;;6.90;6.30;;;6.10;99.90;;;;;;5013848;28;20542;-56
2022/11/12 06:04:29;;;;;;;7.47;6.77;;;6.10;99.90;;;;;;5013920;28;20463;-56
2022/11/12 06:06:56;;;;;;;7.70;6.90;;;6.10;99.90;;;;;;5013721;28;20561;-56
2022/11/12 06:09:23;;;;;;;9.03;7.07;;;6.10;99.90;;;;;;5014106;28;20642;-56
2022/11/12 06:11:54;;;;;;;8.43;7.00;;;6.20;99.90;;;;;;5014006;28;20443;-56
2022/11/12 06:14:22;;;;;;;7.90;7.10;;;6.10;99.90;;;;;;5013571;28;20478;-57
2022/11/12 06:16:49;;;;;;;7.73;6.97;;;6.10;99.90;;;;;;5013984;28;20537;-56
2022/11/12 06:19:17;;;;;;;6.80;6.20;;;6.20;99.90;;;;;;5015092;28;20455;-56
2022/11/12 06:21:44;;;;;;;8.00;7.27;;;6.20;99.90;;;;;;5017633;28;20455;-56
2022/11/12 06:24:11;;;;;;;7.00;6.30;;;6.20;99.90;;;;;;5017992;28;20538;-56
2022/11/12 06:26:39;;;;;;;8.03;5.70;;;6.20;99.90;;;;;;5017839;28;20470;-56
2022/11/12 06:29:06;;;;;;;7.97;7.10;;;6.20;99.90;;;;;;5017621;28;20550;-57
2022/11/12 06:31:33;;;;;;;7.20;6.60;;;6.20;99.90;;;;;;5017788;28;20931;-56
2022/11/12 06:34:00;;;;;;;7.03;6.43;;;6.10;99.90;;;;;;5017436;28;20479;-56
2022/11/12 06:36:29;;;;;;;6.83;6.13;;;6.10;99.90;;;;;;5017652;28;20467;-56
2022/11/12 06:38:56;;;;;;;7.40;6.73;;;6.20;99.90;;;;;;5017717;28;20807;-57
2022/11/12 06:41:23;;;;;;;6.57;5.97;;;6.20;99.90;;;;;;5017371;28;20450;-57
2022/11/12 06:43:50;;;;;;;6.93;6.13;;;6.20;99.90;;;;;;5017655;28;20881;-56
2022/11/12 06:46:18;;;;;;;7.33;6.53;;;6.00;99.90;;;;;;5017215;28;20477;-56
2022/11/12 06:48:45;;;;;;;6.90;5.80;;;5.90;99.90;;;;;;5017226;28;20960;-56
2022/11/12 06:51:16;;;;;;;6.30;5.70;;;6.10;99.90;;;;;;5017502;28;20942;-56
2022/11/12 06:53:45;;;;;;;5.20;4.70;;;6.20;99.90;;;;;;5017013;28;20942;-56
2022/11/12 06:56:13;;;;;;;5.90;5.40;;;6.20;99.90;;;;;;5017363;28;20471;-56
2022/11/12 06:58:40;;;;;;;6.03;5.43;;;6.20;99.90;;;;;;5017313;28;20921;-56
2022/11/12 07:01:10;;;;;;;6.07;5.47;;;6.20;99.90;;;;;;5017040;28;20457;-56
2022/11/12 07:03:38;;;;;;;6.87;5.00;;;6.30;99.90;;;;;;5017264;28;20451;-56
2022/11/12 07:06:08;;;;;;;6.10;5.60;;;6.50;99.90;;;;;;5016796;28;20483;-56
2022/11/12 07:08:35;;;;;;;5.50;5.00;;;6.50;99.90;;;;;;5017006;28;20447;-56
2022/11/12 07:11:04;;;;;;;5.13;4.73;;;6.60;99.90;;;;;;5016729;28;20454;-56
2022/11/12 07:13:32;;;;;;;4.70;4.30;;;6.70;99.90;;;;;;5017091;28;20538;-56
2022/11/12 07:16:00;;;;;;;7.87;5.27;;;6.70;99.90;;;;;;5016574;28;20486;-56
2022/11/12 07:18:28;;;;;;;5.20;4.80;;;6.60;99.90;;;;;;5017063;28;20443;-56
2022/11/12 07:20:58;;;;;;;5.60;5.10;;;6.70;99.90;;;;;;5016960;28;20505;-56
2022/11/12 07:23:26;;;;;;;5.40;4.90;;;6.80;99.90;;;;;;5016537;28;20518;-57
2022/11/12 07:25:57;;;;;;;4.73;4.37;;;6.90;99.90;;;;;;5016787;28;20463;-56
2022/11/12 07:28:26;;;;;;;6.13;5.63;;;6.90;99.90;;;;;;5016794;28;20466;-56
2022/11/12 07:30:58;;;;;;;5.27;4.77;;;6.90;99.90;;;;;;5015182;28;20534;-56
2022/11/12 07:33:26;;;;;;;6.03;5.40;;;7.10;99.90;;;;;;5016733;28;20469;-56
2022/11/12 07:36:00;;;;;;;4.83;4.53;;;7.00;99.90;;;;;;5016723;28;20577;-56
2022/11/12 07:38:29;;;;;;;5.77;5.27;;;7.10;99.90;;;;;;5016536;28;20803;-56
2022/11/12 07:41:01;;;;;;;5.70;5.20;;;7.20;99.90;;;;;;5016601;28;20856;-56
2022/11/12 07:43:30;;;;;;;5.70;5.20;;;7.20;99.90;;;;;;5016079;28;20458;-56
2022/11/12 07:46:00;;;;;;;5.13;4.63;;;7.20;99.90;;;;;;5016304;28;20473;-57
2022/11/12 07:48:28;;;;;;;5.90;5.30;;;7.20;99.90;;;;;;5016254;28;20453;-56
2022/11/12 07:51:00;;;;;;;5.37;4.87;;;7.20;99.90;;;;;;5016335;28;20451;-56
2022/11/12 07:53:27;;;;;;;5.33;4.83;;;7.20;99.90;;;;;;5016266;28;20534;-59
2022/11/12 07:55:56;;;;;;;5.83;5.33;;;7.00;99.90;;;;;;5015860;28;20495;-58
2022/11/12 07:58:23;;;;;;;6.00;5.47;;;7.00;99.90;;;;;;5016049;28;20447;-59
2022/11/12 08:00:52;;;;;;;6.17;5.63;;;7.20;99.90;;;;;;5015956;28;20531;-58
2022/11/12 08:03:20;;;;;;;7.00;6.30;;;7.30;99.90;;;;;;5015987;28;20479;-57
2022/11/12 08:05:47;;;;;;;6.93;6.23;;;7.00;99.90;;;;;;5015284;28;20483;-54
2022/11/12 08:08:14;;;;;;;6.27;5.60;;;7.00;99.90;;;;;;5015983;28;20455;-60
2022/11/12 08:10:42;;;;;;;6.57;6.07;;;6.90;99.90;;;;;;5015801;28;20447;-59
2022/11/12 08:13:09;;;;;;;6.60;5.77;;;7.00;99.90;;;;;;5015629;28;20992;-59
2022/11/12 08:15:36;;;;;;;6.63;6.03;;;7.10;99.90;;;;;;5015155;28;20497;-60
2022/11/12 08:18:05;;;;;;;6.60;5.97;;;7.10;99.90;;;;;;5015700;28;20454;-60
2022/11/12 08:20:32;;;;;;;7.87;6.80;;;7.10;99.90;;;;;;5015632;28;20451;-61
2022/11/12 08:23:02;;;;;;;7.03;6.43;;;7.10;99.90;;;;;;5015309;28;20453;-60
2022/11/12 08:25:29;;;;;;;7.70;6.87;;;7.20;99.90;;;;;;5015107;28;20478;-58
2022/11/12 08:27:57;;;;;;;8.27;7.23;;;7.40;99.90;;;;;;5015073;28;20487;-58
2022/11/12 08:30:25;;;;;;;6.17;5.67;;;7.30;99.90;;;;;;5014861;28;20474;-56
2022/11/12 08:32:56;;;;;;;6.17;5.67;;;7.40;99.90;;;;;;5013972;28;20455;-59
2022/11/12 08:35:25;;;;;;;6.13;5.53;;;7.50;99.90;;;;;;5011457;28;20483;-57
2022/11/12 08:37:57;;;;;;;7.07;6.37;;;7.40;99.90;;;;;;5013940;28;20451;-59
2022/11/12 08:40:24;;;;;;;7.27;6.57;;;7.60;99.90;;;;;;5013817;28;20435;-59
2022/11/12 08:42:58;;;;;;;6.77;6.17;;;7.70;99.90;;;;;;5012244;28;20455;-61
2022/11/12 08:45:25;;;;;;;6.30;5.70;;;7.80;99.90;;;;;;5006242;28;20888;-63
2022/11/12 08:47:52;;;;;;;6.37;5.87;;;7.70;99.90;;;;;;5013416;28;20455;-62
2022/11/12 08:50:19;;;;;;;6.93;6.40;;;7.70;99.90;;;;;;5029148;28;20450;-59
2022/11/12 08:52:48;;;;;;;6.77;6.20;;;7.80;99.90;;;;;;5033412;28;20446;-59
2022/11/12 08:55:15;;;;;;;7.43;5.60;;;8.10;99.90;;;;;;5012221;28;20486;-57
2022/11/12 08:57:43;;;;;;;6.93;6.33;;;8.20;99.90;;;;;;5009321;28;20455;-57
2022/11/12 09:00:23;;;;;;;8.17;6.40;;;8.20;99.90;;;;;;5009844;28;20459;-57
2022/11/12 09:02:51;;;;;;;7.10;6.50;;;8.40;99.90;;;;;;5003369;28;20451;-55
2022/11/12 09:05:32;;;;;;;7.63;6.83;;;8.50;99.90;;;;;;5008277;28;21006;-57
2022/11/12 09:08:03;;;;;;;6.67;6.13;;;8.50;99.90;;;;;;5010853;28;20801;-55
2022/11/12 09:10:30;;;;;;;7.20;6.50;;;8.40;99.90;;;;;;5011530;28;20505;-63
2022/11/12 09:12:57;;;;;;;7.13;6.33;;;8.50;99.90;;;;;;5009440;28;20451;-57
2022/11/12 09:15:26;;;;;;;7.43;6.60;;;8.70;99.90;;;;;;5004516;28;21023;-58
2022/11/12 09:17:55;;;;;;;8.83;6.70;;;8.70;99.90;;;;;;5015782;28;20450;-59
2022/11/12 09:20:23;;;;;;;6.60;6.00;;;8.90;99.90;;;;;;5018549;28;20513;-56
2022/11/12 09:25:34;;;;;;;8.13;7.00;;;9.00;99.90;;;;;;5013106;28;20490;-56
2022/11/12 09:28:06;;;;;;;8.27;7.47;;;9.00;99.90;;;;;;5011409;28;20550;-56
2022/11/12 09:30:34;;;;;;;7.53;6.80;;;9.10;99.90;;;;;;5015120;28;20442;-57
2022/11/12 09:33:01;;;;;;;6.53;5.83;;;9.20;99.90;;;;;;5007171;28;20952;-58
2022/11/12 09:35:29;;;;;;;8.67;6.10;;;9.30;99.90;;;;;;5019771;28;20866;-62
2022/11/12 09:37:57;;;;;;;7.43;6.83;;;9.40;99.90;;;;;;5013236;28;20476;-57
2022/11/12 09:40:41;;;;;;;10.00;6.83;;;9.20;99.90;;;;;;5010808;28;20859;-58
2022/11/12 09:43:19;;;;;;;7.77;6.97;;;9.50;99.90;;;;;;5018509;28;20438;-59
2022/11/12 09:45:47;;;;;;;8.07;7.10;;;9.70;99.90;;;;;;5016185;28;20478;-58
2022/11/12 09:48:34;;;;;;;7.47;6.57;;;9.80;99.90;;;;;;5005009;28;20528;-55
2022/11/12 09:51:04;;;;;;;6.97;6.23;;;9.90;99.90;;;;;;5004347;28;20487;-58
2022/11/12 09:53:38;;;;;;;7.10;6.40;;;10.00;99.90;;;;;;5013144;28;20447;-59
2022/11/12 09:56:16;;;;;;;7.60;6.90;;;10.00;99.90;;;;;;5013975;28;20479;-58
2022/11/12 09:58:46;;;;;;;7.03;6.43;;;10.20;99.90;;;;;;5016277;28;20457;-58
2022/11/12 10:01:17;;;;;;;7.63;6.93;;;10.30;99.90;;;;;;5014270;28;20467;-57
2022/11/12 10:03:57;;;;;;;7.90;6.47;;;10.50;99.90;;;;;;5020407;28;20439;-59
2022/11/12 10:06:33;;;;;;;8.40;7.37;;;10.50;99.90;;;;;;5019312;28;20473;-55
2022/11/12 10:09:05;;;;;;;7.63;6.93;;;10.60;99.90;;;;;;5019571;28;20534;-58
2022/11/12 10:16:41;;;;;;;9.67;6.60;;;10.90;99.90;;;;;;5019472;28;20562;-58
2022/11/12 10:17:54;;;;;;;9.30;7.70;;;10.90;99.90;;;;;;5016924;28;20440;-52
2022/11/12 10:20:25;;;;;;;8.60;7.60;;;11.00;99.90;;;;;;5015382;28;20446;-56
2022/11/12 10:23:13;;;;;;;9.17;6.83;;;11.20;99.90;;;;;;5018189;28;20451;-51
2022/11/12 10:25:45;;;;;;;8.33;7.50;;;11.50;99.90;;;;;;5013789;28;20564;-57
2022/11/12 10:28:28;;;;;;;7.50;6.13;;;12.00;99.90;;;;;;5015862;28;21190;-56
2022/11/12 10:31:00;;;;;;;6.70;6.20;;;12.50;99.90;;;;;;5012702;28;20451;-58
2022/11/12 10:33:33;;;;;;;10.37;6.77;;;13.50;99.90;;;;;;5013067;28;20487;-58
2022/11/12 10:36:17;;;;;;;7.90;7.20;;;13.70;99.90;;;;;;5013990;28;20490;-57
2022/11/12 10:38:47;;;;;;;7.30;6.40;;;13.80;99.90;;;;;;5012114;28;20505;-62
2022/11/12 10:41:20;;;;;;;7.47;6.77;;;13.80;99.90;;;;;;5016506;28;20447;-59
2022/11/12 10:43:56;;;;;;;7.17;6.47;;;13.90;99.90;;;;;;5013197;28;20447;-60
2022/11/12 10:46:25;;;;;;;7.53;6.83;;;14.10;99.90;;;;;;5012996;28;20462;-60
2022/11/12 10:48:59;;;;;;;6.87;6.17;;;14.40;99.90;;;;;;5011375;28;20452;-55
2022/11/12 10:51:29;;;;;;;6.13;5.63;;;14.60;99.90;;;;;;4998943;28;20452;-54
2022/11/12 10:53:56;;;;;;;6.47;5.93;;;15.00;99.90;;;;;;5016595;28;20529;-56
2022/11/12 10:56:28;;;;;;;7.03;6.43;;;15.50;99.90;;;;;;5012461;28;20474;-56
2022/11/12 10:59:15;;;;;;;7.07;6.57;;;15.90;99.90;;;;;;5011572;28;20463;-59
2022/11/12 11:01:44;;;;;;;8.63;6.27;;;16.00;99.90;;;;;;5010403;28;20474;-57
2022/11/12 11:04:27;;;;;;;8.30;6.77;;;15.70;99.90;;;;;;5010447;28;20462;-53
2022/11/12 11:07:06;;;;;;;7.60;6.80;;;14.70;99.90;;;;;;5020340;28;20929;-56
2022/11/12 11:09:34;;;;;;;6.17;5.67;;;14.20;99.90;;;;;;5019823;28;20442;-53
2022/11/12 11:12:01;;;;;;;7.57;6.77;;;14.40;99.90;;;;;;5015481;28;20494;-57
2022/11/12 11:14:37;;;;;;;14.60;9.53;;;14.80;99.90;;;;;;5007521;28;20529;-56
2022/11/12 11:17:08;;;;;;;10.67;8.00;;;16.60;99.90;;;;;;5007186;28;20474;-57
2022/11/12 11:19:41;;;;;;;11.73;8.90;;;17.50;99.90;;;;;;5013695;28;20450;-59
2022/11/12 11:22:23;;;;;;;10.53;8.17;;;18.80;99.90;;;;;;5015768;28;20450;-56
2022/11/12 11:25:02;;;;;;;8.83;7.60;;;19.00;99.90;;;;;;5016004;28;21559;-56
2022/11/12 11:27:31;;;;;;;12.73;7.53;;;;;;;;;;5011701;28;20490;-56
2022/11/12 11:30:10;;;;;;;7.80;6.17;;;19.40;99.90;;;;;;5010186;28;20459;-55
2022/11/12 11:33:01;;;;;;;6.30;5.63;;;18.90;99.90;;;;;;5015374;28;20481;-56
2022/11/12 11:35:41;;;;;;;8.73;6.10;;;19.10;99.90;;;;;;4989644;28;20502;-53
2022/11/12 11:38:25;;;;;;;6.00;5.43;;;19.30;99.90;;;;;;4991941;28;20443;-53
2022/11/12 11:41:03;;;;;;;8.90;4.90;;;19.70;99.90;;;;;;5010986;28;20456;-55
2022/11/12 11:43:46;;;;;;;5.67;5.07;;;19.80;99.90;;;;;;5006150;28;20465;-54
2022/11/12 11:46:25;;;;;;;7.10;5.63;;;19.30;99.90;;;;;;5009850;28;20486;-57
2022/11/12 11:49:13;;;;;;;5.47;4.97;;;19.40;99.90;;;;;;5012700;28;20435;-56
2022/11/12 11:51:49;;;;;;;7.40;4.83;;;19.40;99.90;;;;;;5014057;28;20479;-57
2022/11/12 11:54:43;;;;;;;5.80;4.93;;;19.90;99.90;;;;;;5019311;28;20461;-54
2022/11/12 11:57:14;;;;;;;6.23;5.63;;;19.00;99.90;;;;;;5010649;28;20980;-56
2022/11/12 11:59:55;;;;;;;6.17;5.00;;;18.60;99.90;;;;;;5015835;28;20449;-55
2022/11/12 12:02:47;;;;;;;6.10;5.07;;;17.70;99.90;;;;;;5008225;28;20451;-55
2022/11/12 12:05:29;;;;;;;4.70;4.30;;;17.40;99.90;;;;;;5011651;28;20483;-55
2022/11/12 12:08:02;;;;;;;6.50;4.10;;;18.10;99.90;;;;;;5011579;28;20834;-55
2022/11/12 12:10:37;;;;;;;5.90;5.40;;;19.00;99.90;;;;;;5011305;28;20440;-55
2022/11/12 12:13:11;;;;;;;5.47;5.00;;;19.20;99.90;;;;;;5001303;28;20442;-55
2022/11/12 12:16:01;;;;;;;4.57;4.17;;;19.30;99.90;;;;;;4997355;28;20524;-55
2022/11/12 12:18:38;;;;;;;5.30;4.90;;;19.20;99.90;;;;;;4997099;28;20545;-55
2022/11/12 12:21:12;;;;;;;5.57;4.87;;;19.40;99.90;;;;;;4993790;28;20805;-55
2022/11/12 12:23:44;;;;;;;5.40;5.00;;;19.20;99.90;;;;;;5001639;28;20447;-55
2022/11/12 12:26:18;;;;;;;6.90;4.20;;;19.30;99.90;;;;;;5002878;28;20567;-55
2022/11/12 12:28:51;;;;;;;4.90;4.10;;;18.90;99.90;;;;;;5002693;28;20446;-56
2022/11/12 12:31:24;;;;;;;5.70;5.20;;;18.90;99.90;;;;;;5002554;28;20451;-57
2022/11/12 12:33:56;;;;;;;5.53;5.03;;;18.80;99.90;;;;;;5003194;28;20454;-55
2022/11/12 12:36:30;;;;;;;6.07;5.30;;;18.50;99.90;;;;;;5002676;28;20483;-58
2022/11/12 12:39:09;;;;;;;4.53;4.10;;;17.70;99.90;;;;;;5002802;28;20471;-58
2022/11/12 12:41:43;;;;;;;4.50;4.20;;;17.30;99.90;;;;;;5003157;28;20448;-61
2022/11/12 12:44:11;;;;;;;5.47;4.20;;;17.70;99.90;;;;;;5003379;28;20443;-59
2022/11/12 12:46:42;;;;;;;5.20;4.70;;;17.60;99.90;;;;;;5004274;28;20467;-59
2022/11/12 12:49:17;;;;;;;6.77;5.23;;;18.40;99.90;;;;;;5004232;28;21014;-60
2022/11/12 12:51:45;;;;;;;5.20;4.63;;;19.40;99.90;;;;;;5004277;28;20504;-59
2022/11/12 12:54:56;;;;;;;5.13;4.57;;;19.90;99.80;;;;;;5003298;28;20457;-59
2022/11/12 12:57:32;;;;;;;5.63;5.03;;;19.50;99.10;;;;;;4999331;28;20483;-59
2022/11/12 13:00:28;;;;;;;3.93;3.53;;;19.10;99.90;;;;;;5016654;28;20456;-59
2022/11/12 13:02:56;;;;;;;6.47;5.87;;;19.40;99.90;;;;;;5015388;28;20496;-60
2022/11/12 13:05:31;;;;;;;4.97;4.47;;;18.30;99.90;;;;;;5007021;28;20490;-60
2022/11/12 13:08:03;;;;;;;5.63;5.03;;;18.20;99.90;;;;;;5002828;28;20529;-60
2022/11/12 13:10:54;;;;;;;5.67;4.03;;;18.60;99.90;;;;;;5002321;28;20450;-58
2022/11/12 13:13:34;;;;;;;4.47;4.07;;;17.80;99.90;;;;;;5002705;28;20506;-61
2022/11/12 13:16:01;;;;;;;4.93;3.77;;;18.80;99.90;;;;;;4998825;28;20488;-61
2022/11/12 13:18:58;;;;;;;4.30;3.90;;;19.60;99.60;;;;;;4992388;28;20483;-58
2022/11/12 13:21:27;;;;;;;5.33;4.57;;;;;;;;;;4994020;28;20455;-58
2022/11/12 13:24:07;;;;;;;5.00;4.00;;;20.60;97.90;;;;;;5002480;28;20519;-57
2022/11/12 13:26:48;;;;;;;4.20;3.80;;;20.40;98.00;;;;;;5009201;28;20479;-55
2022/11/12 13:29:36;;;;;;;5.23;4.43;;;20.60;97.60;;;;;;5014144;28;20458;-55
2022/11/12 13:32:28;;;;;;;6.20;4.53;;;20.30;97.70;;;;;;5011430;28;20446;-65
2022/11/12 13:35:28;;;;;;;6.03;5.53;;;19.70;98.20;;;;;;5012196;28;20471;-58